sensor_id;sensor_type;location;lat;lon;timestamp;P1;durP1;ratioP1;P2;durP2;ratioP2
2362;SDS011;64265;51.664;7.626;2023-03-14T00:01:43;9.13;;;1.50;;
2362;SDS011;64265;51.664;7.626;2023-03-14T00:04:10;3.78;;;0.90;;
2362;SDS011;64265;51.664;7.626;2023-03-14T00:06:37;1.00;;;0.80;;
2362;SDS011;64265;51.664;7.626;2023-03-14T00:09:04;1.55;;;1.00;;
2362;SDS011;64265;51.664;7.626;2023-03-14T00:11:32;1.00;;;0.70;;
2362;SDS011;64265;51.664;7.626;2023-03-14T00:13:59;1.65;;;0.80;;
2362;SDS011;64265;51.664;7.626;2023-03-14T00:16:26;1.35;;;0.90;;
2362;SDS011;64265;51.664;7.626;2023-03-14T00:18:52;1.52;;;0.90;;
2362;SDS011;64265;51.664;7.626;2023-03-14T00:21:19;1.13;;;0.70;;
2362;SDS011;64265;51.664;7.626;2023-03-14T00:23:46;1.33;;;0.90;;
2362;SDS011;64265;51.664;7.626;2023-03-14T00:26:13;1.40;;;0.90;;
2362;SDS011;64265;51.664;7.626;2023-03-14T00:28:45;1.95;;;0.82;;
2362;SDS011;64265;51.664;7.626;2023-03-14T00:31:13;1.65;;;1.00;;
2362;SDS011;64265;51.664;7.626;2023-03-14T00:33:41;1.02;;;0.70;;
2362;SDS011;64265;51.664;7.626;2023-03-14T00:36:09;1.13;;;1.00;;
2362;SDS011;64265;51.664;7.626;2023-03-14T00:38:37;4.20;;;1.00;;
2362;SDS011;64265;51.664;7.626;2023-03-14T00:41:05;1.40;;;1.13;;
2362;SDS011;64265;51.664;7.626;2023-03-14T00:43:33;1.00;;;0.80;;
2362;SDS011;64265;51.664;7.626;2023-03-14T00:46:02;1.20;;;0.90;;
2362;SDS011;64265;51.664;7.626;2023-03-14T00:48:29;1.63;;;0.85;;
2362;SDS011;64265;51.664;7.626;2023-03-14T00:50:56;2.08;;;0.90;;
2362;SDS011;64265;51.664;7.626;2023-03-14T00:53:23;1.55;;;0.90;;
2362;SDS011;64265;51.664;7.626;2023-03-14T00:55:50;2.90;;;0.70;;
2362;SDS011;64265;51.664;7.626;2023-03-14T00:58:17;2.55;;;1.02;;
2362;SDS011;64265;51.664;7.626;2023-03-14T01:00:44;1.10;;;0.80;;
2362;SDS011;64265;51.664;7.626;2023-03-14T01:03:13;1.15;;;0.95;;
2362;SDS011;64265;51.664;7.626;2023-03-14T01:05:40;1.15;;;1.00;;
2362;SDS011;64265;51.664;7.626;2023-03-14T01:08:07;3.58;;;0.80;;
2362;SDS011;64265;51.664;7.626;2023-03-14T01:10:34;1.52;;;0.90;;
2362;SDS011;64265;51.664;7.626;2023-03-14T01:13:03;1.58;;;0.90;;
2362;SDS011;64265;51.664;7.626;2023-03-14T01:15:31;1.63;;;0.90;;
2362;SDS011;64265;51.664;7.626;2023-03-14T01:17:58;0.90;;;0.73;;
2362;SDS011;64265;51.664;7.626;2023-03-14T01:20:26;1.00;;;0.80;;
2362;SDS011;64265;51.664;7.626;2023-03-14T01:22:53;1.20;;;0.90;;
2362;SDS011;64265;51.664;7.626;2023-03-14T01:25:19;1.10;;;0.75;;
2362;SDS011;64265;51.664;7.626;2023-03-14T01:27:46;1.13;;;0.70;;
2362;SDS011;64265;51.664;7.626;2023-03-14T01:30:13;1.20;;;1.00;;
2362;SDS011;64265;51.664;7.626;2023-03-14T01:32:40;0.90;;;0.70;;
2362;SDS011;64265;51.664;7.626;2023-03-14T01:35:07;3.10;;;1.00;;
2362;SDS011;64265;51.664;7.626;2023-03-14T01:37:35;1.30;;;0.90;;
2362;SDS011;64265;51.664;7.626;2023-03-14T01:40:02;1.10;;;0.90;;
2362;SDS011;64265;51.664;7.626;2023-03-14T01:42:31;1.30;;;0.80;;
2362;SDS011;64265;51.664;7.626;2023-03-14T01:44:58;1.23;;;0.80;;
2362;SDS011;64265;51.664;7.626;2023-03-14T01:47:26;0.93;;;0.70;;
2362;SDS011;64265;51.664;7.626;2023-03-14T01:49:53;1.10;;;0.80;;
2362;SDS011;64265;51.664;7.626;2023-03-14T01:52:26;1.27;;;1.17;;
2362;SDS011;64265;51.664;7.626;2023-03-14T01:54:58;0.90;;;0.77;;
2362;SDS011;64265;51.664;7.626;2023-03-14T01:57:32;1.00;;;0.90;;
2362;SDS011;64265;51.664;7.626;2023-03-14T02:00:03;4.20;;;0.93;;
2362;SDS011;64265;51.664;7.626;2023-03-14T02:02:36;1.67;;;0.70;;
2362;SDS011;64265;51.664;7.626;2023-03-14T02:05:04;0.95;;;0.75;;
2362;SDS011;64265;51.664;7.626;2023-03-14T02:07:33;0.90;;;0.70;;
2362;SDS011;64265;51.664;7.626;2023-03-14T02:10:06;1.88;;;0.90;;
2362;SDS011;64265;51.664;7.626;2023-03-14T02:12:33;1.15;;;0.85;;
2362;SDS011;64265;51.664;7.626;2023-03-14T02:15:01;1.10;;;0.82;;
2362;SDS011;64265;51.664;7.626;2023-03-14T02:17:28;1.30;;;1.10;;
2362;SDS011;64265;51.664;7.626;2023-03-14T02:20:03;1.33;;;0.90;;
2362;SDS011;64265;51.664;7.626;2023-03-14T02:22:40;2.50;;;1.20;;
2362;SDS011;64265;51.664;7.626;2023-03-14T02:25:13;1.10;;;0.80;;
2362;SDS011;64265;51.664;7.626;2023-03-14T02:27:44;1.80;;;1.00;;
2362;SDS011;64265;51.664;7.626;2023-03-14T02:30:13;1.00;;;0.80;;
2362;SDS011;64265;51.664;7.626;2023-03-14T02:32:43;1.73;;;0.88;;
2362;SDS011;64265;51.664;7.626;2023-03-14T02:35:12;1.90;;;1.02;;
2362;SDS011;64265;51.664;7.626;2023-03-14T02:37:44;2.00;;;1.00;;
2362;SDS011;64265;51.664;7.626;2023-03-14T02:40:14;1.45;;;0.80;;
2362;SDS011;64265;51.664;7.626;2023-03-14T02:42:41;0.90;;;0.65;;
2362;SDS011;64265;51.664;7.626;2023-03-14T02:48:04;1.27;;;0.90;;
2362;SDS011;64265;51.664;7.626;2023-03-14T02:50:35;0.90;;;0.73;;
2362;SDS011;64265;51.664;7.626;2023-03-14T02:53:01;1.10;;;0.70;;
2362;SDS011;64265;51.664;7.626;2023-03-14T02:55:28;1.42;;;1.00;;
2362;SDS011;64265;51.664;7.626;2023-03-14T02:57:55;1.10;;;0.82;;
2362;SDS011;64265;51.664;7.626;2023-03-14T03:00:21;1.05;;;0.77;;
2362;SDS011;64265;51.664;7.626;2023-03-14T03:02:50;1.10;;;0.80;;
2362;SDS011;64265;51.664;7.626;2023-03-14T03:05:16;1.40;;;0.80;;
2362;SDS011;64265;51.664;7.626;2023-03-14T03:07:43;1.20;;;0.80;;
2362;SDS011;64265;51.664;7.626;2023-03-14T03:10:10;1.00;;;0.80;;
2362;SDS011;64265;51.664;7.626;2023-03-14T03:12:37;0.90;;;0.75;;
2362;SDS011;64265;51.664;7.626;2023-03-14T03:15:04;1.00;;;0.70;;
2362;SDS011;64265;51.664;7.626;2023-03-14T03:17:31;1.00;;;0.88;;
2362;SDS011;64265;51.664;7.626;2023-03-14T03:19:59;1.35;;;0.90;;
2362;SDS011;64265;51.664;7.626;2023-03-14T03:22:26;1.13;;;0.95;;
2362;SDS011;64265;51.664;7.626;2023-03-14T03:24:53;1.60;;;0.90;;
2362;SDS011;64265;51.664;7.626;2023-03-14T03:27:19;1.30;;;1.00;;
2362;SDS011;64265;51.664;7.626;2023-03-14T03:29:46;1.10;;;0.80;;
2362;SDS011;64265;51.664;7.626;2023-03-14T03:32:13;1.00;;;0.80;;
2362;SDS011;64265;51.664;7.626;2023-03-14T03:34:40;1.10;;;0.85;;
2362;SDS011;64265;51.664;7.626;2023-03-14T03:37:08;1.90;;;0.80;;
2362;SDS011;64265;51.664;7.626;2023-03-14T03:39:34;1.17;;;0.80;;
2362;SDS011;64265;51.664;7.626;2023-03-14T03:42:01;2.10;;;0.80;;
2362;SDS011;64265;51.664;7.626;2023-03-14T03:44:28;1.70;;;0.80;;
2362;SDS011;64265;51.664;7.626;2023-03-14T03:46:54;1.00;;;0.70;;
2362;SDS011;64265;51.664;7.626;2023-03-14T03:49:21;1.20;;;0.88;;
2362;SDS011;64265;51.664;7.626;2023-03-14T03:51:48;0.98;;;0.82;;
2362;SDS011;64265;51.664;7.626;2023-03-14T03:54:16;1.10;;;0.70;;
2362;SDS011;64265;51.664;7.626;2023-03-14T03:56:42;1.00;;;0.80;;
2362;SDS011;64265;51.664;7.626;2023-03-14T03:59:09;1.60;;;1.27;;
2362;SDS011;64265;51.664;7.626;2023-03-14T04:01:36;1.25;;;1.02;;
2362;SDS011;64265;51.664;7.626;2023-03-14T04:04:02;1.00;;;0.70;;
2362;SDS011;64265;51.664;7.626;2023-03-14T04:06:29;1.85;;;0.80;;
2362;SDS011;64265;51.664;7.626;2023-03-14T04:08:56;1.00;;;0.70;;
2362;SDS011;64265;51.664;7.626;2023-03-14T04:11:24;1.10;;;0.90;;
2362;SDS011;64265;51.664;7.626;2023-03-14T04:13:51;1.98;;;0.70;;
2362;SDS011;64265;51.664;7.626;2023-03-14T04:16:19;1.10;;;0.85;;
2362;SDS011;64265;51.664;7.626;2023-03-14T04:18:47;0.90;;;0.77;;
2362;SDS011;64265;51.664;7.626;2023-03-14T04:21:14;1.10;;;0.85;;
2362;SDS011;64265;51.664;7.626;2023-03-14T04:23:40;1.00;;;0.68;;
2362;SDS011;64265;51.664;7.626;2023-03-14T04:26:07;1.30;;;0.70;;
2362;SDS011;64265;51.664;7.626;2023-03-14T04:28:35;1.10;;;0.95;;
2362;SDS011;64265;51.664;7.626;2023-03-14T04:31:06;0.90;;;0.73;;
2362;SDS011;64265;51.664;7.626;2023-03-14T04:33:33;1.00;;;0.80;;
2362;SDS011;64265;51.664;7.626;2023-03-14T04:36:01;1.02;;;0.70;;
2362;SDS011;64265;51.664;7.626;2023-03-14T04:38:28;2.00;;;0.80;;
2362;SDS011;64265;51.664;7.626;2023-03-14T04:40:55;1.02;;;0.77;;
2362;SDS011;64265;51.664;7.626;2023-03-14T04:43:22;1.60;;;0.80;;
2362;SDS011;64265;51.664;7.626;2023-03-14T04:45:50;1.00;;;0.70;;
2362;SDS011;64265;51.664;7.626;2023-03-14T04:48:16;1.00;;;0.77;;
2362;SDS011;64265;51.664;7.626;2023-03-14T04:50:43;2.53;;;0.80;;
2362;SDS011;64265;51.664;7.626;2023-03-14T04:53:11;3.08;;;0.80;;
2362;SDS011;64265;51.664;7.626;2023-03-14T04:55:38;1.00;;;0.80;;
2362;SDS011;64265;51.664;7.626;2023-03-14T04:58:04;0.90;;;0.80;;
2362;SDS011;64265;51.664;7.626;2023-03-14T05:00:31;1.13;;;0.70;;
2362;SDS011;64265;51.664;7.626;2023-03-14T05:02:59;0.90;;;0.70;;
2362;SDS011;64265;51.664;7.626;2023-03-14T05:05:26;0.90;;;0.80;;
2362;SDS011;64265;51.664;7.626;2023-03-14T05:07:52;1.00;;;0.90;;
2362;SDS011;64265;51.664;7.626;2023-03-14T05:10:19;0.90;;;0.70;;
2362;SDS011;64265;51.664;7.626;2023-03-14T05:12:46;1.17;;;0.80;;
2362;SDS011;64265;51.664;7.626;2023-03-14T05:15:12;1.00;;;0.75;;
2362;SDS011;64265;51.664;7.626;2023-03-14T05:17:39;1.10;;;0.82;;
2362;SDS011;64265;51.664;7.626;2023-03-14T05:20:08;1.10;;;0.90;;
2362;SDS011;64265;51.664;7.626;2023-03-14T05:22:38;1.40;;;0.98;;
2362;SDS011;64265;51.664;7.626;2023-03-14T05:25:05;1.10;;;0.90;;
2362;SDS011;64265;51.664;7.626;2023-03-14T05:27:32;1.23;;;0.93;;
2362;SDS011;64265;51.664;7.626;2023-03-14T05:29:59;0.95;;;0.70;;
2362;SDS011;64265;51.664;7.626;2023-03-14T05:32:26;1.40;;;0.80;;
2362;SDS011;64265;51.664;7.626;2023-03-14T05:34:52;1.00;;;0.80;;
2362;SDS011;64265;51.664;7.626;2023-03-14T05:37:24;0.80;;;0.60;;
2362;SDS011;64265;51.664;7.626;2023-03-14T05:39:51;0.90;;;0.70;;
2362;SDS011;64265;51.664;7.626;2023-03-14T05:42:18;1.00;;;0.73;;
2362;SDS011;64265;51.664;7.626;2023-03-14T05:44:45;1.20;;;0.70;;
2362;SDS011;64265;51.664;7.626;2023-03-14T05:47:12;1.00;;;0.73;;
2362;SDS011;64265;51.664;7.626;2023-03-14T05:49:38;1.55;;;0.90;;
2362;SDS011;64265;51.664;7.626;2023-03-14T05:52:05;1.20;;;0.90;;
2362;SDS011;64265;51.664;7.626;2023-03-14T05:54:33;0.90;;;0.73;;
2362;SDS011;64265;51.664;7.626;2023-03-14T05:57:00;1.00;;;0.70;;
2362;SDS011;64265;51.664;7.626;2023-03-14T05:59:29;1.05;;;0.93;;
2362;SDS011;64265;51.664;7.626;2023-03-14T06:01:56;0.90;;;0.80;;
2362;SDS011;64265;51.664;7.626;2023-03-14T06:04:23;1.30;;;0.93;;
2362;SDS011;64265;51.664;7.626;2023-03-14T06:06:50;1.40;;;0.80;;
2362;SDS011;64265;51.664;7.626;2023-03-14T06:09:17;1.55;;;0.90;;
2362;SDS011;64265;51.664;7.626;2023-03-14T06:11:46;1.30;;;0.60;;
2362;SDS011;64265;51.664;7.626;2023-03-14T06:14:12;1.10;;;0.85;;
2362;SDS011;64265;51.664;7.626;2023-03-14T06:16:39;1.00;;;0.70;;
2362;SDS011;64265;51.664;7.626;2023-03-14T06:19:06;1.00;;;0.80;;
2362;SDS011;64265;51.664;7.626;2023-03-14T06:21:32;1.20;;;0.88;;
2362;SDS011;64265;51.664;7.626;2023-03-14T06:23:59;1.23;;;0.80;;
2362;SDS011;64265;51.664;7.626;2023-03-14T06:26:26;0.90;;;0.70;;
2362;SDS011;64265;51.664;7.626;2023-03-14T06:28:54;0.90;;;0.68;;
2362;SDS011;64265;51.664;7.626;2023-03-14T06:31:21;1.23;;;0.70;;
2362;SDS011;64265;51.664;7.626;2023-03-14T06:33:48;0.90;;;0.70;;
2362;SDS011;64265;51.664;7.626;2023-03-14T06:36:14;1.10;;;0.80;;
2362;SDS011;64265;51.664;7.626;2023-03-14T06:38:41;1.05;;;0.80;;
2362;SDS011;64265;51.664;7.626;2023-03-14T06:41:08;1.00;;;0.90;;
2362;SDS011;64265;51.664;7.626;2023-03-14T06:43:35;0.90;;;0.70;;
2362;SDS011;64265;51.664;7.626;2023-03-14T06:46:03;0.88;;;0.65;;
2362;SDS011;64265;51.664;7.626;2023-03-14T06:48:30;0.85;;;0.70;;
2362;SDS011;64265;51.664;7.626;2023-03-14T06:50:57;1.10;;;0.80;;
2362;SDS011;64265;51.664;7.626;2023-03-14T06:53:24;1.20;;;0.80;;
2362;SDS011;64265;51.664;7.626;2023-03-14T06:55:51;2.30;;;0.85;;
2362;SDS011;64265;51.664;7.626;2023-03-14T06:58:17;1.20;;;0.93;;
2362;SDS011;64265;51.664;7.626;2023-03-14T07:00:45;1.30;;;0.90;;
2362;SDS011;64265;51.664;7.626;2023-03-14T07:03:14;0.90;;;0.63;;
2362;SDS011;64265;51.664;7.626;2023-03-14T07:05:41;1.10;;;0.75;;
2362;SDS011;64265;51.664;7.626;2023-03-14T07:08:08;1.33;;;0.90;;
2362;SDS011;64265;51.664;7.626;2023-03-14T07:10:35;1.00;;;0.70;;
2362;SDS011;64265;51.664;7.626;2023-03-14T07:13:01;0.90;;;0.60;;
2362;SDS011;64265;51.664;7.626;2023-03-14T07:15:28;0.90;;;0.70;;
2362;SDS011;64265;51.664;7.626;2023-03-14T07:17:55;1.42;;;0.90;;
2362;SDS011;64265;51.664;7.626;2023-03-14T07:20:23;1.00;;;0.80;;
2362;SDS011;64265;51.664;7.626;2023-03-14T07:22:50;1.02;;;0.70;;
2362;SDS011;64265;51.664;7.626;2023-03-14T07:25:17;0.98;;;0.70;;
2362;SDS011;64265;51.664;7.626;2023-03-14T07:27:44;1.40;;;1.20;;
2362;SDS011;64265;51.664;7.626;2023-03-14T07:30:12;0.85;;;0.68;;
2362;SDS011;64265;51.664;7.626;2023-03-14T07:32:39;0.90;;;0.60;;
2362;SDS011;64265;51.664;7.626;2023-03-14T07:35:07;0.90;;;0.73;;
2362;SDS011;64265;51.664;7.626;2023-03-14T07:37:35;0.95;;;0.70;;
2362;SDS011;64265;51.664;7.626;2023-03-14T07:40:02;1.00;;;0.80;;
2362;SDS011;64265;51.664;7.626;2023-03-14T07:42:32;1.10;;;0.70;;
2362;SDS011;64265;51.664;7.626;2023-03-14T07:44:58;1.10;;;0.80;;
2362;SDS011;64265;51.664;7.626;2023-03-14T07:47:25;0.80;;;0.60;;
2362;SDS011;64265;51.664;7.626;2023-03-14T07:49:52;1.20;;;0.85;;
2362;SDS011;64265;51.664;7.626;2023-03-14T07:52:18;0.98;;;0.70;;
2362;SDS011;64265;51.664;7.626;2023-03-14T07:54:46;1.00;;;0.75;;
2362;SDS011;64265;51.664;7.626;2023-03-14T07:57:13;1.10;;;0.90;;
2362;SDS011;64265;51.664;7.626;2023-03-14T07:59:40;1.00;;;0.60;;
2362;SDS011;64265;51.664;7.626;2023-03-14T08:02:08;1.00;;;0.70;;
2362;SDS011;64265;51.664;7.626;2023-03-14T08:04:37;0.93;;;0.68;;
2362;SDS011;64265;51.664;7.626;2023-03-14T08:07:03;0.90;;;0.68;;
2362;SDS011;64265;51.664;7.626;2023-03-14T08:09:30;0.90;;;0.70;;
2362;SDS011;64265;51.664;7.626;2023-03-14T08:11:58;1.52;;;0.70;;
2362;SDS011;64265;51.664;7.626;2023-03-14T08:14:25;0.80;;;0.70;;
2362;SDS011;64265;51.664;7.626;2023-03-14T08:16:54;2.05;;;0.60;;
2362;SDS011;64265;51.664;7.626;2023-03-14T08:19:20;1.98;;;0.82;;
2362;SDS011;64265;51.664;7.626;2023-03-14T08:21:47;2.45;;;0.70;;
2362;SDS011;64265;51.664;7.626;2023-03-14T08:24:14;0.95;;;0.63;;
2362;SDS011;64265;51.664;7.626;2023-03-14T08:26:40;0.93;;;0.70;;
2362;SDS011;64265;51.664;7.626;2023-03-14T08:29:08;1.63;;;0.60;;
2362;SDS011;64265;51.664;7.626;2023-03-14T08:31:37;1.83;;;0.80;;
2362;SDS011;64265;51.664;7.626;2023-03-14T08:34:04;1.80;;;0.80;;
2362;SDS011;64265;51.664;7.626;2023-03-14T08:36:32;1.52;;;0.80;;
2362;SDS011;64265;51.664;7.626;2023-03-14T08:38:58;0.90;;;0.77;;
2362;SDS011;64265;51.664;7.626;2023-03-14T08:41:25;1.00;;;0.80;;
2362;SDS011;64265;51.664;7.626;2023-03-14T08:43:52;0.90;;;0.80;;
2362;SDS011;64265;51.664;7.626;2023-03-14T08:46:20;0.90;;;0.70;;
2362;SDS011;64265;51.664;7.626;2023-03-14T08:48:46;1.00;;;0.70;;
2362;SDS011;64265;51.664;7.626;2023-03-14T08:51:13;0.95;;;0.70;;
2362;SDS011;64265;51.664;7.626;2023-03-14T08:53:40;0.90;;;0.70;;
2362;SDS011;64265;51.664;7.626;2023-03-14T08:56:07;2.67;;;0.90;;
2362;SDS011;64265;51.664;7.626;2023-03-14T08:58:35;1.42;;;0.85;;
2362;SDS011;64265;51.664;7.626;2023-03-14T09:01:03;2.58;;;0.70;;
2362;SDS011;64265;51.664;7.626;2023-03-14T09:03:31;1.70;;;0.90;;
2362;SDS011;64265;51.664;7.626;2023-03-14T09:06:01;1.00;;;0.70;;
2362;SDS011;64265;51.664;7.626;2023-03-14T09:08:29;1.10;;;0.75;;
2362;SDS011;64265;51.664;7.626;2023-03-14T09:10:56;0.90;;;0.60;;
2362;SDS011;64265;51.664;7.626;2023-03-14T09:13:22;0.90;;;0.70;;
2362;SDS011;64265;51.664;7.626;2023-03-14T09:15:50;3.95;;;1.27;;
2362;SDS011;64265;51.664;7.626;2023-03-14T09:18:17;1.27;;;0.60;;
2362;SDS011;64265;51.664;7.626;2023-03-14T09:20:45;0.90;;;0.70;;
2362;SDS011;64265;51.664;7.626;2023-03-14T09:23:12;1.10;;;0.70;;
2362;SDS011;64265;51.664;7.626;2023-03-14T09:25:38;1.05;;;0.80;;
2362;SDS011;64265;51.664;7.626;2023-03-14T09:28:05;0.98;;;0.73;;
2362;SDS011;64265;51.664;7.626;2023-03-14T09:30:32;1.30;;;0.70;;
2362;SDS011;64265;51.664;7.626;2023-03-14T09:32:59;1.50;;;0.80;;
2362;SDS011;64265;51.664;7.626;2023-03-14T09:35:26;1.25;;;0.70;;
2362;SDS011;64265;51.664;7.626;2023-03-14T09:37:54;5.75;;;1.25;;
2362;SDS011;64265;51.664;7.626;2023-03-14T09:40:21;1.25;;;0.80;;
2362;SDS011;64265;51.664;7.626;2023-03-14T09:42:50;1.52;;;0.70;;
2362;SDS011;64265;51.664;7.626;2023-03-14T09:45:21;0.90;;;0.70;;
2362;SDS011;64265;51.664;7.626;2023-03-14T09:47:51;1.25;;;0.80;;
2362;SDS011;64265;51.664;7.626;2023-03-14T09:50:19;1.23;;;0.70;;
2362;SDS011;64265;51.664;7.626;2023-03-14T09:52:46;1.40;;;0.80;;
2362;SDS011;64265;51.664;7.626;2023-03-14T09:55:19;0.90;;;0.70;;
2362;SDS011;64265;51.664;7.626;2023-03-14T09:57:48;0.90;;;0.70;;
2362;SDS011;64265;51.664;7.626;2023-03-14T10:00:18;0.90;;;0.70;;
2362;SDS011;64265;51.664;7.626;2023-03-14T10:02:47;0.95;;;0.70;;
2362;SDS011;64265;51.664;7.626;2023-03-14T10:05:19;0.90;;;0.77;;
2362;SDS011;64265;51.664;7.626;2023-03-14T10:07:47;0.90;;;0.70;;
2362;SDS011;64265;51.664;7.626;2023-03-14T10:10:15;1.10;;;0.77;;
2362;SDS011;64265;51.664;7.626;2023-03-14T10:12:46;1.02;;;0.90;;
2362;SDS011;64265;51.664;7.626;2023-03-14T10:15:14;1.10;;;0.77;;
2362;SDS011;64265;51.664;7.626;2023-03-14T10:17:49;11.50;;;0.70;;
2362;SDS011;64265;51.664;7.626;2023-03-14T10:20:27;1.00;;;0.73;;
2362;SDS011;64265;51.664;7.626;2023-03-14T10:22:58;1.90;;;0.80;;
2362;SDS011;64265;51.664;7.626;2023-03-14T10:25:26;1.05;;;0.73;;
2362;SDS011;64265;51.664;7.626;2023-03-14T10:27:55;3.35;;;0.80;;
2362;SDS011;64265;51.664;7.626;2023-03-14T10:30:37;1.20;;;0.80;;
2362;SDS011;64265;51.664;7.626;2023-03-14T10:33:09;1.77;;;0.90;;
2362;SDS011;64265;51.664;7.626;2023-03-14T10:35:44;1.00;;;0.80;;
2362;SDS011;64265;51.664;7.626;2023-03-14T10:38:12;1.70;;;0.82;;
2362;SDS011;64265;51.664;7.626;2023-03-14T10:40:41;1.00;;;0.70;;
2362;SDS011;64265;51.664;7.626;2023-03-14T10:43:16;2.55;;;0.80;;
2362;SDS011;64265;51.664;7.626;2023-03-14T10:45:51;1.30;;;0.90;;
2362;SDS011;64265;51.664;7.626;2023-03-14T10:48:23;1.80;;;0.70;;
2362;SDS011;64265;51.664;7.626;2023-03-14T10:50:55;1.20;;;0.80;;
2362;SDS011;64265;51.664;7.626;2023-03-14T10:53:24;1.00;;;0.77;;
2362;SDS011;64265;51.664;7.626;2023-03-14T10:55:51;1.90;;;0.90;;
2362;SDS011;64265;51.664;7.626;2023-03-14T10:58:22;1.35;;;0.70;;
2362;SDS011;64265;51.664;7.626;2023-03-14T11:00:57;1.08;;;0.70;;
2362;SDS011;64265;51.664;7.626;2023-03-14T11:03:35;1.15;;;0.70;;
2362;SDS011;64265;51.664;7.626;2023-03-14T11:06:05;1.55;;;0.90;;
2362;SDS011;64265;51.664;7.626;2023-03-14T11:08:37;1.43;;;0.70;;
2362;SDS011;64265;51.664;7.626;2023-03-14T11:11:14;1.10;;;0.70;;
2362;SDS011;64265;51.664;7.626;2023-03-14T11:13:47;1.30;;;0.77;;
2362;SDS011;64265;51.664;7.626;2023-03-14T11:16:25;1.13;;;0.90;;
2362;SDS011;64265;51.664;7.626;2023-03-14T11:19:03;1.20;;;0.70;;
2362;SDS011;64265;51.664;7.626;2023-03-14T11:21:45;1.47;;;0.97;;
2362;SDS011;64265;51.664;7.626;2023-03-14T11:24:21;1.07;;;0.70;;
2362;SDS011;64265;51.664;7.626;2023-03-14T11:26:58;3.50;;;0.90;;
2362;SDS011;64265;51.664;7.626;2023-03-14T11:29:33;1.10;;;0.80;;
2362;SDS011;64265;51.664;7.626;2023-03-14T11:32:09;1.40;;;1.00;;
2362;SDS011;64265;51.664;7.626;2023-03-14T11:34:40;0.90;;;0.80;;
2362;SDS011;64265;51.664;7.626;2023-03-14T11:37:14;1.00;;;0.80;;
2362;SDS011;64265;51.664;7.626;2023-03-14T11:39:51;11.10;;;0.90;;
2362;SDS011;64265;51.664;7.626;2023-03-14T11:42:24;1.00;;;0.80;;
2362;SDS011;64265;51.664;7.626;2023-03-14T11:44:54;1.70;;;0.77;;
2362;SDS011;64265;51.664;7.626;2023-03-14T11:47:24;6.77;;;0.73;;
2362;SDS011;64265;51.664;7.626;2023-03-14T11:49:56;0.93;;;0.70;;
2362;SDS011;64265;51.664;7.626;2023-03-14T11:52:28;1.00;;;0.70;;
2362;SDS011;64265;51.664;7.626;2023-03-14T11:54:59;0.90;;;0.73;;
2362;SDS011;64265;51.664;7.626;2023-03-14T11:57:31;1.20;;;0.80;;
2362;SDS011;64265;51.664;7.626;2023-03-14T12:00:00;2.83;;;0.80;;
2362;SDS011;64265;51.664;7.626;2023-03-14T12:02:33;1.10;;;0.90;;
2362;SDS011;64265;51.664;7.626;2023-03-14T12:05:25;1.00;;;0.70;;
2362;SDS011;64265;51.664;7.626;2023-03-14T12:08:20;0.93;;;0.80;;
2362;SDS011;64265;51.664;7.626;2023-03-14T12:10:55;1.57;;;0.80;;
2362;SDS011;64265;51.664;7.626;2023-03-14T12:13:28;1.00;;;0.70;;
2362;SDS011;64265;51.664;7.626;2023-03-14T12:15:57;3.10;;;0.90;;
2362;SDS011;64265;51.664;7.626;2023-03-14T12:18:26;1.10;;;0.60;;
2362;SDS011;64265;51.664;7.626;2023-03-14T12:20:55;1.20;;;0.70;;
2362;SDS011;64265;51.664;7.626;2023-03-14T12:23:24;0.97;;;0.73;;
2362;SDS011;64265;51.664;7.626;2023-03-14T12:26:13;1.80;;;0.73;;
2362;SDS011;64265;51.664;7.626;2023-03-14T12:28:43;1.10;;;0.70;;
2362;SDS011;64265;51.664;7.626;2023-03-14T12:34:26;2.13;;;0.70;;
2362;SDS011;64265;51.664;7.626;2023-03-14T12:36:59;1.00;;;0.70;;
2362;SDS011;64265;51.664;7.626;2023-03-14T12:39:37;1.10;;;0.90;;
2362;SDS011;64265;51.664;7.626;2023-03-14T12:42:12;1.20;;;0.70;;
2362;SDS011;64265;51.664;7.626;2023-03-14T12:44:44;1.00;;;0.70;;
2362;SDS011;64265;51.664;7.626;2023-03-14T12:50:14;1.00;;;0.70;;
2362;SDS011;64265;51.664;7.626;2023-03-14T12:52:49;1.00;;;0.80;;
2362;SDS011;64265;51.664;7.626;2023-03-14T12:55:36;1.30;;;0.80;;
2362;SDS011;64265;51.664;7.626;2023-03-14T12:58:07;1.00;;;0.73;;
2362;SDS011;64265;51.664;7.626;2023-03-14T13:00:41;1.53;;;0.80;;
2362;SDS011;64265;51.664;7.626;2023-03-14T13:03:18;1.20;;;0.90;;
2362;SDS011;64265;51.664;7.626;2023-03-14T13:05:55;1.10;;;0.70;;
2362;SDS011;64265;51.664;7.626;2023-03-14T13:08:34;1.10;;;0.90;;
2362;SDS011;64265;51.664;7.626;2023-03-14T13:11:04;1.03;;;0.70;;
2362;SDS011;64265;51.664;7.626;2023-03-14T13:13:34;1.00;;;0.70;;
2362;SDS011;64265;51.664;7.626;2023-03-14T13:16:02;1.27;;;1.00;;
2362;SDS011;64265;51.664;7.626;2023-03-14T13:18:30;1.53;;;1.00;;
2362;SDS011;64265;51.664;7.626;2023-03-14T13:21:03;1.00;;;0.70;;
2362;SDS011;64265;51.664;7.626;2023-03-14T13:23:34;0.80;;;0.70;;
2362;SDS011;64265;51.664;7.626;2023-03-14T13:26:03;1.53;;;1.07;;
2362;SDS011;64265;51.664;7.626;2023-03-14T13:28:35;0.90;;;0.63;;
2362;SDS011;64265;51.664;7.626;2023-03-14T13:31:02;2.10;;;0.77;;
2362;SDS011;64265;51.664;7.626;2023-03-14T13:33:30;1.00;;;0.67;;
2362;SDS011;64265;51.664;7.626;2023-03-14T13:35:57;1.40;;;0.73;;
2362;SDS011;64265;51.664;7.626;2023-03-14T13:38:29;1.10;;;0.90;;
2362;SDS011;64265;51.664;7.626;2023-03-14T13:40:57;1.10;;;0.60;;
2362;SDS011;64265;51.664;7.626;2023-03-14T13:43:27;5.77;;;1.70;;
2362;SDS011;64265;51.664;7.626;2023-03-14T13:45:56;8.77;;;1.90;;
2362;SDS011;64265;51.664;7.626;2023-03-14T13:48:29;4.53;;;1.87;;
2362;SDS011;64265;51.664;7.626;2023-03-14T13:50:58;6.28;;;2.30;;
2362;SDS011;64265;51.664;7.626;2023-03-14T13:53:28;6.22;;;2.13;;
2362;SDS011;64265;51.664;7.626;2023-03-14T13:55:55;3.33;;;1.90;;
2362;SDS011;64265;51.664;7.626;2023-03-14T13:58:23;7.10;;;2.92;;
2362;SDS011;64265;51.664;7.626;2023-03-14T14:00:53;5.88;;;1.92;;
2362;SDS011;64265;51.664;7.626;2023-03-14T14:03:23;5.18;;;2.05;;
2362;SDS011;64265;51.664;7.626;2023-03-14T14:05:50;12.38;;;3.17;;
2362;SDS011;64265;51.664;7.626;2023-03-14T14:08:17;6.80;;;2.20;;
2362;SDS011;64265;51.664;7.626;2023-03-14T14:10:45;12.52;;;3.38;;
2362;SDS011;64265;51.664;7.626;2023-03-14T14:13:14;14.45;;;2.90;;
2362;SDS011;64265;51.664;7.626;2023-03-14T14:15:45;5.88;;;1.95;;
2362;SDS011;64265;51.664;7.626;2023-03-14T14:18:15;4.65;;;1.90;;
2362;SDS011;64265;51.664;7.626;2023-03-14T14:20:45;4.50;;;2.10;;
2362;SDS011;64265;51.664;7.626;2023-03-14T14:23:14;6.07;;;2.58;;
2362;SDS011;64265;51.664;7.626;2023-03-14T14:25:45;5.00;;;2.00;;
2362;SDS011;64265;51.664;7.626;2023-03-14T14:28:15;5.22;;;2.05;;
2362;SDS011;64265;51.664;7.626;2023-03-14T14:30:53;7.63;;;2.20;;
2362;SDS011;64265;51.664;7.626;2023-03-14T14:33:27;7.35;;;2.42;;
2362;SDS011;64265;51.664;7.626;2023-03-14T14:35:54;15.32;;;2.55;;
2362;SDS011;64265;51.664;7.626;2023-03-14T14:38:22;8.15;;;1.80;;
2362;SDS011;64265;51.664;7.626;2023-03-14T14:40:52;7.13;;;1.95;;
2362;SDS011;64265;51.664;7.626;2023-03-14T14:43:22;9.30;;;2.55;;
2362;SDS011;64265;51.664;7.626;2023-03-14T14:45:53;6.50;;;1.88;;
2362;SDS011;64265;51.664;7.626;2023-03-14T14:48:21;5.75;;;2.25;;
2362;SDS011;64265;51.664;7.626;2023-03-14T14:50:53;4.38;;;1.70;;
2362;SDS011;64265;51.664;7.626;2023-03-14T14:53:24;3.83;;;1.60;;
2362;SDS011;64265;51.664;7.626;2023-03-14T14:55:56;1.60;;;1.20;;
2362;SDS011;64265;51.664;7.626;2023-03-14T14:58:24;4.53;;;1.50;;
2362;SDS011;64265;51.664;7.626;2023-03-14T15:00:54;2.30;;;1.40;;
2362;SDS011;64265;51.664;7.626;2023-03-14T15:03:26;4.32;;;1.65;;
2362;SDS011;64265;51.664;7.626;2023-03-14T15:05:54;6.55;;;1.52;;
2362;SDS011;64265;51.664;7.626;2023-03-14T15:08:21;2.95;;;1.70;;
2362;SDS011;64265;51.664;7.626;2023-03-14T15:10:49;5.82;;;1.90;;
2362;SDS011;64265;51.664;7.626;2023-03-14T15:13:17;5.97;;;1.85;;
2362;SDS011;64265;51.664;7.626;2023-03-14T15:15:44;1.58;;;1.17;;
2362;SDS011;64265;51.664;7.626;2023-03-14T15:18:12;6.32;;;1.90;;
2362;SDS011;64265;51.664;7.626;2023-03-14T15:20:41;5.45;;;1.70;;